KSMQ

Somerset Airport

Somerville, New Jersey, USA
METAR KSMQ 170253Z AUTO 00000KT 10SM CLR 06/05 A3007 RMK AO2 SLP183 T00560050 58001
Observed Flight Rules
Oct-17 @ 02:53 UTC (45 minutes ago) Visual Flight Rules
Visibility Clouds
10 miles
  • Clear skies
Temperatures Readings
Current 6°C / 43°F
Dewpoint 5°C / 41°F
Humidity 93%
Altimeter 30.07" Hg
Pressure 1018.3 hPa
Elevation 30
METAR KSMQ 170253Z AUTO 00000KT 10SM CLR 06/05 A3007 RMK AO2 SLP183 T00560050 58001
Observed Flight Rules
Oct-17 @ 02:53 UTC
(45 minutes ago)
VFR
Clouds
  • Clear skies
Temperature Dewpoint
6°C / 43°F 5°C / 41°F
Humidity Altimeter Pressure
93% 30.07" Hg 1018.3 hPa